Puig, Spain
Current Conditions -  °F | °C
As of 4:00 AM on Friday 28 Nov 2014 (Local Time) from LEBT Reporting Station
Broken Clouds Broken Clouds  
Wind Chill: 55°   Ceiling: 4700
Heat Index: 55°   Visibility: 4mi
Dew Point: 54°   Wind: 1mph
Humidity: 94%   Direction: 30°NNE
Pressure: 29.32"   Gusts: NA
Location:  39.59°N, 0.3°W
Report Text: LEBT 280300Z AUTO 03001KT 7000 // FEW013/// SCT034///BKN047/// 13/12 Q0993
Loading
Personal Weather Stations






























Interactive Weather Map New forecast layout! Learn more

10-Day Weather Forecast

Advertisements
Track Severe Weather on mobile